Time;durP1;ratioP1;P1;durP2;ratioP2;P2;SDS_P1;SDS_P2;PMS_P1;PMS_P2;Temp;Humidity;BMP_temperature;BMP_pressure;BME280_temperature;BME280_humidity;BME280_pressure;Samples;Min_cycle;Max_cycle;Signal;HPM_P1;HPM_P2
2022/07/30 00:00:40;;;;;;;7.00;2.17;;;;;;;22.93;43.18;99616.41;5059515;28;20060;-68
2022/07/30 00:03:06;;;;;;;10.43;2.63;;;;;;;22.88;43.35;99617.09;5093124;28;20435;-67
2022/07/30 00:05:31;;;;;;;5.78;2.00;;;;;;;22.91;43.18;99623.97;5042736;28;20039;-67
2022/07/30 00:07:57;;;;;;;5.00;2.03;;;;;;;22.85;43.17;99623.00;5043132;28;20544;-68
2022/07/30 00:10:23;;;;;;;9.25;3.15;;;;;;;22.80;43.42;99625.59;5076273;28;20040;-66
2022/07/30 00:12:49;;;;;;;6.20;2.00;;;;;;;22.83;42.87;99618.91;5042871;28;20065;-67
2022/07/30 00:15:15;;;;;;;6.68;1.90;;;;;;;22.76;42.55;99608.19;5059336;28;20393;-66
2022/07/30 00:17:41;;;;;;;4.20;1.70;;;;;;;22.67;42.97;99623.16;5092812;28;20044;-68
2022/07/30 00:20:07;;;;;;;4.00;1.80;;;;;;;22.67;42.76;99627.72;5059092;28;20063;-67
2022/07/30 00:22:33;;;;;;;3.97;1.70;;;;;;;22.54;42.90;99625.28;5075791;28;20051;-67
2022/07/30 00:24:58;;;;;;;5.32;1.65;;;;;;;22.51;42.65;99618.44;5075639;28;20097;-72
2022/07/30 00:27:24;;;;;;;5.32;1.70;;;;;;;22.46;42.53;99620.16;5059436;28;20055;-68
2022/07/30 00:29:50;;;;;;;6.72;1.83;;;;;;;22.44;42.92;99622.28;5074957;28;20051;-67
2022/07/30 00:32:15;;;;;;;4.20;1.77;;;;;;;22.36;42.37;99615.34;5092170;28;20082;-67
2022/07/30 00:34:41;;;;;;;4.82;1.60;;;;;;;22.38;42.82;99615.94;5092284;28;20459;-67
2022/07/30 00:37:07;;;;;;;4.07;1.45;;;;;;;22.22;42.74;99594.16;5092710;28;20040;-67
2022/07/30 00:39:32;;;;;;;7.75;1.80;;;;;;;22.31;42.66;99617.91;5058951;28;20126;-67
2022/07/30 00:42:01;;;;;;;3.63;1.77;;;;;;;22.42;42.38;99617.09;5075798;28;20047;-68
2022/07/30 00:44:27;;;;;;;9.65;2.00;;;;;;;22.32;42.53;99618.75;5092432;28;20440;-67
2022/07/30 00:46:53;;;;;;;3.17;1.70;;;;;;;22.28;42.85;99623.00;5058681;28;20097;-67
2022/07/30 00:49:19;;;;;;;3.67;1.52;;;;;;;22.26;42.85;99623.22;5075459;28;20048;-66
2022/07/30 00:51:45;;;;;;;3.67;1.88;;;;;;;22.25;43.18;99624.25;5092452;28;20044;-67
2022/07/30 00:54:11;;;;;;;8.23;1.73;;;;;;;22.19;42.99;99618.97;5059073;28;20044;-66
2022/07/30 00:56:37;;;;;;;6.22;1.73;;;;;;;22.25;42.91;99626.16;5058976;28;20412;-66
2022/07/30 00:59:03;;;;;;;4.25;1.67;;;;;;;22.21;42.79;99614.13;5075681;28;20046;-66
2022/07/30 01:01:31;;;;;;;4.47;2.00;;;;;;;22.29;43.07;99613.81;5058875;28;20060;-68
2022/07/30 01:03:57;;;;;;;5.50;1.88;;;;;;;22.14;43.50;99616.94;5075759;28;20496;-68
2022/07/30 01:06:23;;;;;;;5.75;1.85;;;;;;;22.15;43.09;99612.38;5058115;28;20048;-67
2022/07/30 01:08:49;;;;;;;4.40;1.55;;;;;;;22.11;43.00;99616.59;5041659;28;20036;-67
2022/07/30 01:11:15;;;;;;;3.13;1.65;;;;;;;22.09;43.08;99608.72;5074949;28;20566;-67
2022/07/30 01:13:42;;;;;;;11.35;1.90;;;;;;;22.15;43.18;99607.78;5091628;28;20075;-67
2022/07/30 01:16:08;;;;;;;4.35;1.85;;;;;;;22.14;43.60;99616.94;5092828;28;20067;-67
2022/07/30 01:21:37;;;;;;;10.75;2.30;;;;;;;22.21;43.66;99606.84;5053791;28;20051;-68
2022/07/30 01:24:32;;;;;;;4.68;2.00;;;;;;;22.27;43.68;99614.03;5074679;28;20470;-67
2022/07/30 01:26:59;;;;;;;8.70;2.70;;;;;;;22.00;44.20;99599.31;5074129;28;20134;-68
2022/07/30 01:29:26;;;;;;;6.13;2.20;;;;;;;22.12;44.49;99608.25;5074393;28;20043;-67
2022/07/30 01:31:54;;;;;;;6.63;2.45;;;;;;;22.04;44.06;99595.06;5074542;28;20412;-67
2022/07/30 01:34:22;;;;;;;7.30;2.50;;;;;;;22.11;44.27;99608.50;5091201;28;20044;-67
2022/07/30 01:36:47;;;;;;;11.07;2.58;;;;;;;21.99;44.74;99611.16;5057852;28;20455;-66
2022/07/30 01:39:16;;;;;;;8.30;2.47;;;;;;;22.09;44.80;99613.31;5058049;28;20100;-66
2022/07/30 01:41:43;;;;;;;6.78;2.30;;;;;;;21.84;44.53;99599.13;5057531;28;20524;-67
2022/07/30 01:44:11;;;;;;;5.90;2.47;;;;;;;21.99;44.62;99608.44;5057362;28;20135;-67
2022/07/30 01:46:37;;;;;;;7.45;2.70;;;;;;;22.01;44.60;99622.56;5092398;28;20095;-67
2022/07/30 01:49:03;;;;;;;7.88;2.25;;;;;;;21.94;44.83;99621.03;5074493;28;20063;-67
2022/07/30 01:51:31;;;;;;;11.38;2.50;;;;;;;21.91;44.50;99616.09;5074232;28;20098;-67
2022/07/30 01:53:57;;;;;;;6.80;2.20;;;;;;;21.93;44.63;99611.25;5057536;28;20527;-67
2022/07/30 01:56:23;;;;;;;6.93;2.10;;;;;;;21.88;44.62;99605.75;5074030;28;20036;-69
2022/07/30 01:58:50;;;;;;;12.32;2.20;;;;;;;21.92;44.47;99631.25;5040799;28;20040;-67
2022/07/30 02:01:21;;;;;;;6.70;2.25;;;;;;;21.76;44.71;99605.69;5090970;28;20064;-66
2022/07/30 02:03:47;;;;;;;6.60;1.90;;;;;;;21.81;44.50;99618.50;5073746;28;20036;-67
2022/07/30 02:06:20;;;;;;;3.83;1.70;;;;;;;21.99;44.69;99630.09;5074123;28;20043;-66
2022/07/30 02:08:57;;;;;;;6.38;2.35;;;;;;;22.05;44.56;99629.16;5073772;28;20417;-67
2022/07/30 02:14:21;;;;;;;6.15;2.30;;;;;;;21.94;44.85;99624.53;5077457;28;20047;-66
2022/07/30 02:16:53;;;;;;;5.05;1.80;;;;;;;21.78;45.15;99610.88;5091273;28;20455;-68
2022/07/30 02:19:24;;;;;;;6.57;2.03;;;;;;;21.84;45.00;99627.00;5074900;28;20149;-66
2022/07/30 02:21:57;;;;;;;5.38;2.33;;;;;;;21.88;45.23;99630.06;5057839;28;20417;-67
2022/07/30 02:24:25;;;;;;;7.40;2.25;;;;;;;21.79;45.08;99616.03;5057606;28;20061;-67
2022/07/30 02:27:03;;;;;;;9.27;2.00;;;;;;;21.94;45.24;99626.44;5092616;28;20040;-66
2022/07/30 02:29:31;;;;;;;7.38;2.15;;;;;;;21.65;45.42;99601.03;5091076;28;20097;-66
2022/07/30 02:31:57;;;;;;;5.18;2.08;;;;;;;21.73;45.71;99628.56;5057234;28;20425;-67
2022/07/30 02:34:24;;;;;;;7.47;2.33;;;;;;;21.82;45.38;99634.50;5074317;28;20046;-66
2022/07/30 02:36:51;;;;;;;8.35;2.25;;;;;;;21.88;45.21;99633.59;5091114;28;20036;-67
2022/07/30 02:39:18;;;;;;;4.10;2.15;;;;;;;21.96;45.16;99635.16;5057423;28;20055;-67
2022/07/30 02:41:44;;;;;;;13.68;2.42;;;;;;;22.00;45.21;99634.47;5074030;28;20052;-68
2022/07/30 02:44:10;;;;;;;4.80;2.05;;;;;;;22.10;45.07;99642.81;5090373;28;20040;-67
2022/07/30 02:46:38;;;;;;;4.15;2.53;;;;;;;22.02;44.96;99623.41;5057146;28;20052;-67
2022/07/30 02:49:25;;;;;;;7.18;2.20;;;;;;;22.19;45.06;99646.84;5061658;28;20039;-67
2022/07/30 02:51:52;;;;;;;11.15;2.28;;;;;;;22.11;45.08;99640.94;5073408;28;20068;-67
2022/07/30 02:54:19;;;;;;;11.05;2.50;;;;;;;22.18;45.34;99649.78;5090851;28;20066;-68
2022/07/30 02:56:46;;;;;;;24.77;3.10;;;;;;;22.17;45.43;99643.53;5056669;28;20040;-67
2022/07/30 02:59:13;;;;;;;13.23;3.15;;;;;;;22.10;45.47;99644.69;5056835;28;20040;-68
2022/07/30 03:01:40;;;;;;;10.50;2.50;;;;;;;22.03;45.09;99625.88;5073464;28;20066;-68
2022/07/30 03:04:07;;;;;;;13.23;2.38;;;;;;;22.04;45.05;99656.44;5057389;28;20048;-68
2022/07/30 03:06:34;;;;;;;5.28;2.63;;;;;;;22.18;45.28;99647.06;5040554;28;20047;-67
2022/07/30 03:09:01;;;;;;;9.15;2.30;;;;;;;22.19;44.82;99660.38;5056797;28;20054;-67
2022/07/30 03:11:29;;;;;;;5.53;2.28;;;;;;;22.17;44.94;99646.22;5072961;28;20527;-67
2022/07/30 03:13:55;;;;;;;3.78;2.10;;;;;;;21.91;44.96;99633.13;5073121;28;20043;-67
2022/07/30 03:16:22;;;;;;;9.90;2.88;;;;;;;22.17;44.76;99653.53;5089748;28;20093;-67
2022/07/30 03:18:48;;;;;;;10.15;2.20;;;;;;;22.28;44.48;99655.47;5073471;28;20066;-67
2022/07/30 03:21:16;;;;;;;5.70;2.20;;;;;;;22.33;44.47;99661.81;5056511;28;20044;-67
2022/07/30 03:23:43;;;;;;;7.80;2.33;;;;;;;22.30;44.31;99659.56;5056187;28;20509;-66
2022/07/30 03:26:10;;;;;;;4.57;2.00;;;;;;;22.16;44.92;99643.75;5073394;28;20052;-70
2022/07/30 03:28:40;;;;;;;7.25;2.10;;;;;;;22.29;44.94;99666.03;5056887;28;20036;-68
2022/07/30 03:31:07;;;;;;;11.90;2.30;;;;;;;22.22;45.20;99668.00;5090546;28;20051;-68
2022/07/30 03:33:37;;;;;;;6.32;2.40;;;;;;;22.35;44.87;99667.81;5073520;28;20131;-67
2022/07/30 03:36:03;;;;;;;3.42;2.00;;;;;;;22.25;45.06;99659.44;5073341;28;20062;-67
2022/07/30 03:38:29;;;;;;;6.68;2.40;;;;;;;22.12;45.31;99640.72;5056790;28;20048;-67
2022/07/30 03:40:55;;;;;;;11.50;2.40;;;;;;;22.28;45.00;99667.09;5040013;28;20043;-67
2022/07/30 03:43:22;;;;;;;9.30;2.50;;;;;;;22.20;45.01;99645.81;5056654;28;20035;-67
2022/07/30 03:45:48;;;;;;;8.15;2.67;;;;;;;22.38;45.23;99669.22;5072774;28;20040;-67
2022/07/30 03:48:16;;;;;;;8.63;2.45;;;;;;;22.34;45.27;99659.94;5073122;28;20043;-67
2022/07/30 03:50:46;;;;;;;8.82;2.60;;;;;;;22.35;45.15;99651.59;5073404;28;20090;-67
2022/07/30 03:53:14;;;;;;;6.65;2.20;;;;;;;22.26;45.41;99646.75;5040199;28;20545;-67
2022/07/30 03:56:00;;;;;;;8.02;2.45;;;;;;;22.30;45.04;99643.34;5082064;28;20117;-67
2022/07/30 03:58:58;;;;;;;2.80;2.28;;;;;;;22.39;44.89;99678.97;5055213;28;20088;-67
2022/07/30 04:01:27;;;;;;;7.65;2.42;;;;;;;22.64;44.96;99680.47;5055549;28;20099;-67
2022/07/30 04:04:08;;;;;;;10.40;2.45;;;;;;;22.55;44.77;99662.94;5058887;28;20036;-67
2022/07/30 04:06:39;;;;;;;8.38;2.40;;;;;;;22.84;45.04;99683.66;5059439;28;20047;-67
2022/07/30 04:09:09;;;;;;;3.43;2.20;;;;;;;22.90;44.54;99687.28;5075962;28;20050;-67
2022/07/30 04:11:35;;;;;;;4.95;2.20;;;;;;;22.84;44.56;99683.66;5042811;28;20795;-68
2022/07/30 04:14:04;;;;;;;12.50;2.47;;;;;;;22.94;44.25;99681.16;5076332;28;20055;-68
2022/07/30 04:16:46;;;;;;;5.95;2.53;;;;;;;23.05;44.10;99690.34;5059351;28;20580;-67
2022/07/30 04:19:20;;;;;;;8.63;2.45;;;;;;;22.95;44.01;99680.13;5075988;28;20077;-67
2022/07/30 04:21:47;;;;;;;;;;;;;;;23.10;43.97;99693.16;5076107;28;20416;-67
2022/07/30 04:24:13;;;;;;;7.35;2.30;;;;;;;22.82;44.55;99685.78;5059276;28;19927;-68
2022/07/30 04:26:39;;;;;;;6.32;2.58;;;;;;;22.74;44.53;99669.06;5059178;28;20048;-67
2022/07/30 04:29:07;;;;;;;7.05;2.80;;;;;;;23.11;43.94;99689.41;5075624;28;20036;-67
2022/07/30 04:31:37;;;;;;;5.95;2.10;;;;;;;23.11;44.09;99694.84;5092645;28;20496;-68
2022/07/30 04:34:16;;;;;;;4.88;2.03;;;;;;;22.99;43.29;99683.16;5077889;28;20044;-68
2022/07/30 04:36:42;;;;;;;6.30;1.73;;;;;;;23.20;43.38;99696.94;5075905;28;20031;-67
2022/07/30 04:39:08;;;;;;;3.55;2.05;;;;;;;23.25;43.25;99702.50;5076028;28;20048;-68
2022/07/30 04:41:34;;;;;;;6.32;2.13;;;;;;;23.21;42.55;99695.06;5075389;28;20511;-67
2022/07/30 04:44:23;;;;;;;6.32;2.20;;;;;;;23.37;42.43;99698.94;5064435;28;20491;-67
2022/07/30 04:47:09;;;;;;;9.95;2.13;;;;;;;23.49;42.28;99707.88;5093556;28;20036;-66
2022/07/30 04:49:41;;;;;;;6.90;2.13;;;;;;;23.55;42.05;99690.66;5059539;28;20040;-68
2022/07/30 04:52:07;;;;;;;3.58;2.00;;;;;;;23.62;41.55;99703.00;5091984;28;20044;-67
2022/07/30 04:54:38;;;;;;;4.68;1.98;;;;;;;23.85;41.58;99707.53;5058738;28;20044;-67
2022/07/30 04:57:05;;;;;;;7.60;2.10;;;;;;;23.85;41.76;99712.97;5059022;28;20626;-68
2022/07/30 04:59:31;;;;;;;5.22;2.00;;;;;;;23.84;40.87;99712.13;5075510;28;20044;-68
2022/07/30 05:01:58;;;;;;;4.63;2.05;;;;;;;24.02;40.40;99717.38;5075324;28;20059;-67
2022/07/30 05:04:27;;;;;;;9.20;1.90;;;;;;;24.15;40.29;99722.53;5075530;28;20465;-67
2022/07/30 05:06:53;;;;;;;5.63;2.55;;;;;;;24.06;40.42;99723.16;5058334;28;20101;-67
2022/07/30 05:09:18;;;;;;;6.13;1.90;;;;;;;23.89;40.38;99709.53;5058411;28;20130;-67
2022/07/30 05:11:51;;;;;;;3.95;1.80;;;;;;;24.29;40.34;99712.19;5058595;28;20483;-67
2022/07/30 05:14:18;;;;;;;5.63;1.70;;;;;;;24.13;40.24;99707.53;5092855;28;20075;-67
2022/07/30 05:16:44;;;;;;;6.63;1.90;;;;;;;24.15;39.54;99708.97;5058109;28;20126;-68
2022/07/30 05:19:10;;;;;;;6.38;2.00;;;;;;;24.22;39.67;99692.50;5075378;28;20126;-67
2022/07/30 05:21:36;;;;;;;9.13;2.20;;;;;;;24.27;39.60;99714.31;5091505;28;20496;-68
2022/07/30 05:24:03;;;;;;;5.07;2.08;;;;;;;24.17;39.58;99697.84;5058140;28;20090;-67
2022/07/30 05:26:35;;;;;;;4.50;2.53;;;;;;;24.20;39.55;99700.09;5075498;28;20044;-67
2022/07/30 05:29:01;;;;;;;2.35;1.80;;;;;;;24.40;39.29;99716.72;5074636;28;20462;-68
2022/07/30 05:31:41;;;;;;;3.30;1.60;;;;;;;24.44;38.47;99724.13;5044962;28;20058;-68
2022/07/30 05:34:07;;;;;;;4.10;2.00;;;;;;;24.49;38.45;99717.97;5057894;28;20040;-67
2022/07/30 05:36:39;;;;;;;3.88;1.85;;;;;;;24.62;37.75;99725.78;5059796;28;20040;-67
2022/07/30 05:39:05;;;;;;;7.20;1.92;;;;;;;24.66;37.14;99721.56;5058141;28;20394;-68
2022/07/30 05:42:00;;;;;;;4.50;1.75;;;;;;;24.75;37.52;99722.78;5077436;28;20058;-68
2022/07/30 05:44:38;;;;;;;7.13;1.67;;;;;;;24.78;36.60;99708.69;5044346;28;20047;-68
2022/07/30 05:47:04;;;;;;;8.63;1.88;;;;;;;24.88;36.86;99720.53;5057708;28;20048;-68
2022/07/30 05:49:30;;;;;;;4.60;1.70;;;;;;;24.93;36.87;99725.22;5040953;28;20044;-67
2022/07/30 05:52:04;;;;;;;9.50;1.80;;;;;;;25.07;37.01;99721.09;5075292;28;20039;-69
2022/07/30 05:54:33;;;;;;;9.02;1.95;;;;;;;25.06;36.85;99710.47;5074054;28;20402;-67
2022/07/30 05:57:10;;;;;;;6.25;2.00;;;;;;;25.19;36.95;99727.25;5091198;28;20028;-68
2022/07/30 05:59:40;;;;;;;9.90;1.88;;;;;;;25.47;37.78;99727.13;5041167;28;20044;-68
2022/07/30 06:02:11;;;;;;;7.28;1.98;;;;;;;25.36;36.77;99727.25;5058230;28;20062;-68
2022/07/30 06:04:48;;;;;;;3.90;1.70;;;;;;;25.40;36.30;99712.09;5075633;28;20040;-70
2022/07/30 06:07:14;;;;;;;5.15;1.50;;;;;;;25.56;36.39;99733.78;5057502;28;20086;-68
2022/07/30 06:09:40;;;;;;;4.47;1.52;;;;;;;25.72;36.28;99721.19;5056960;28;20134;-67
2022/07/30 06:12:07;;;;;;;4.07;1.50;;;;;;;25.82;36.03;99727.56;5057756;28;20051;-68
2022/07/30 06:14:33;;;;;;;6.97;2.17;;;;;;;25.84;35.98;99719.97;5073706;28;20101;-67
2022/07/30 06:16:59;;;;;;;2.53;1.33;;;;;;;25.95;35.05;99713.59;5057243;28;20046;-67
2022/07/30 06:19:30;;;;;;;9.35;1.75;;;;;;;25.98;35.03;99715.78;5073461;28;20047;-68
2022/07/30 06:21:58;;;;;;;4.50;1.55;;;;;;;26.08;34.20;99709.63;5073952;28;20075;-68
2022/07/30 06:24:24;;;;;;;7.55;1.60;;;;;;;26.39;34.22;99719.75;5073616;28;20482;-67
2022/07/30 06:27:01;;;;;;;3.97;1.45;;;;;;;26.57;34.20;99719.38;5060013;28;20052;-68
2022/07/30 06:29:27;;;;;;;6.22;1.80;;;;;;;26.65;34.05;99720.84;5072783;28;20459;-68
2022/07/30 06:31:53;;;;;;;7.18;1.60;;;;;;;26.52;34.02;99723.97;5056732;28;20056;-68
2022/07/30 06:34:23;;;;;;;2.53;1.77;;;;;;;26.35;34.60;99716.72;5057286;28;20044;-68
2022/07/30 06:36:48;;;;;;;3.42;1.58;;;;;;;26.35;34.48;99715.91;5057490;28;20584;-67
2022/07/30 06:39:17;;;;;;;5.20;1.42;;;;;;;26.49;34.62;99711.69;5057795;28;20066;-67
2022/07/30 06:41:52;;;;;;;5.82;1.40;;;;;;;26.76;34.08;99728.00;5058629;28;20558;-68
2022/07/30 06:44:18;;;;;;;4.28;1.10;;;;;;;26.81;32.17;99733.50;5073478;28;20051;-67
2022/07/30 06:46:46;;;;;;;2.25;1.08;;;;;;;26.84;31.69;99716.63;5057252;28;20571;-68
2022/07/30 06:49:12;;;;;;;3.35;1.08;;;;;;;27.02;30.42;99725.22;5056566;28;20039;-68
2022/07/30 06:51:38;;;;;;;3.15;1.00;;;;;;;27.27;30.25;99719.13;5056417;28;20394;-69
2022/07/30 06:54:04;;;;;;;3.90;1.10;;;;;;;27.50;29.36;99718.69;5056476;28;20047;-67
2022/07/30 06:56:29;;;;;;;2.55;0.90;;;;;;;27.64;29.20;99690.66;5073142;28;20562;-68
2022/07/30 06:59:01;;;;;;;2.72;1.00;;;;;;;28.26;27.86;99723.38;5057231;28;20046;-68
2022/07/30 07:02:06;;;;;;;3.03;1.00;;;;;;;28.85;27.76;99721.78;5083783;28;20064;-68
2022/07/30 07:04:45;;;;;;;2.25;1.10;;;;;;;29.11;27.56;99706.16;5043211;28;20043;-68
2022/07/30 07:07:11;;;;;;;2.65;1.40;;;;;;;29.31;26.81;99723.38;5089685;28;20421;-68
2022/07/30 07:09:36;;;;;;;2.97;1.38;;;;;;;29.36;27.27;99728.81;5089636;28;20040;-68
2022/07/30 07:12:22;;;;;;;3.55;1.10;;;;;;;29.24;27.03;99733.78;5073952;28;20071;-69
2022/07/30 07:14:48;;;;;;;4.28;1.15;;;;;;;29.47;26.51;99722.22;5056517;28;20505;-69
2022/07/30 07:17:14;;;;;;;1.33;1.00;;;;;;;29.90;26.06;99723.44;5072989;28;20078;-68
2022/07/30 07:20:09;;;;;;;7.50;1.20;;;;;;;30.35;25.94;99716.91;5059167;28;20048;-68
2022/07/30 07:22:43;;;;;;;6.65;1.50;;;;;;;30.73;25.54;99694.09;5058278;28;20044;-67
2022/07/30 07:25:09;;;;;;;3.15;1.10;;;;;;;31.04;24.54;99722.94;5089555;28;20051;-68
2022/07/30 07:27:36;;;;;;;3.05;1.10;;;;;;;31.46;23.89;99725.78;5056304;28;20051;-68
2022/07/30 07:30:04;;;;;;;2.90;1.30;;;;;;;32.53;22.46;99713.94;5039424;28;20103;-68
2022/07/30 07:32:32;;;;;;;3.63;1.10;;;;;;;33.34;22.53;99729.00;5056166;28;20066;-67
2022/07/30 07:34:57;;;;;;;7.68;1.30;;;;;;;34.57;20.72;99719.53;5072529;28;20051;-68
2022/07/30 07:37:23;;;;;;;8.10;1.17;;;;;;;36.32;19.38;99706.31;5039275;28;20036;-68
2022/07/30 07:39:49;;;;;;;5.57;1.15;;;;;;;37.06;17.90;99720.75;5057241;28;20110;-68
2022/07/30 07:42:15;;;;;;;4.32;1.08;;;;;;;37.22;16.76;99724.66;5093601;28;20068;-68
2022/07/30 07:44:42;;;;;;;2.70;1.30;;;;;;;36.49;17.82;99688.94;5059936;28;20424;-68
2022/07/30 07:47:08;;;;;;;3.92;1.20;;;;;;;35.79;18.38;99716.78;5059734;28;20036;-68
2022/07/30 07:49:40;;;;;;;4.05;1.10;;;;;;;36.24;18.24;99709.91;5061435;28;20106;-68
2022/07/30 07:52:06;;;;;;;3.30;1.27;;;;;;;37.34;16.95;99712.84;5059708;28;20048;-68
2022/07/30 07:54:32;;;;;;;16.33;1.60;;;;;;;39.91;14.51;99702.75;5060041;28;20048;-68
2022/07/30 07:56:58;;;;;;;2.22;1.13;;;;;;;42.52;12.60;99718.88;5059910;28;20071;-68
2022/07/30 07:59:30;;;;;;;5.10;1.02;;;;;;;44.15;11.04;99699.03;5061261;28;20045;-70
2022/07/30 08:01:56;;;;;;;9.55;1.10;;;;;;;44.72;10.80;99710.59;5075872;28;20068;-69
2022/07/30 08:04:47;;;;;;;3.72;0.93;;;;;;;46.50;9.53;99709.69;5075874;28;20124;-69
2022/07/30 08:07:13;;;;;;;4.88;1.20;;;;;;;47.54;8.49;99688.59;5093043;28;20135;-69
2022/07/30 08:10:09;;;;;;;4.57;1.10;;;;;;;48.78;8.04;99700.34;5079263;28;20043;-70
2022/07/30 08:13:08;;;;;;;3.50;1.52;;;;;;;49.60;7.09;99707.84;5056768;28;20055;-70
2022/07/30 08:15:36;;;;;;;3.08;1.00;;;;;;;50.23;6.37;99690.25;5075990;28;20420;-70
2022/07/30 08:18:37;;;;;;;2.50;0.90;;;;;;;47.97;7.45;99689.38;5068685;28;20549;-69
2022/07/30 08:21:21;;;;;;;2.47;0.85;;;;;;;48.40;6.58;99681.59;5092836;28;20100;-70
2022/07/30 08:23:47;;;;;;;3.17;0.98;;;;;;;49.21;6.79;99686.78;5075745;28;20036;-69
2022/07/30 08:26:13;;;;;;;4.95;1.00;;;;;;;50.33;6.16;99680.84;5059103;28;20043;-69
2022/07/30 08:28:39;;;;;;;2.58;1.10;;;;;;;51.22;5.27;99680.41;5075779;28;20044;-70
2022/07/30 08:31:06;;;;;;;6.78;1.30;;;;;;;50.65;5.31;99673.97;5092491;28;20051;-68
2022/07/30 08:33:32;;;;;;;2.47;0.95;;;;;;;47.60;6.35;99667.31;5092320;28;20413;-69
2022/07/30 08:35:58;;;;;;;3.92;0.80;;;;;;;45.29;7.72;99671.91;5059134;28;20497;-69
2022/07/30 08:38:24;;;;;;;1.90;1.00;;;;;;;43.61;9.07;99653.81;5042477;28;20039;-68
2022/07/30 08:40:49;;;;;;;2.42;0.90;;;;;;;41.44;10.66;99657.34;5075286;28;20047;-69
2022/07/30 08:43:18;;;;;;;2.42;1.00;;;;;;;40.57;11.42;99653.00;5075351;28;20079;-69
2022/07/30 08:45:44;;;;;;;3.08;1.25;;;;;;;42.25;10.78;99662.03;5075049;28;20047;-69
2022/07/30 08:48:30;;;;;;;1.33;0.70;;;;;;;44.62;9.27;99666.44;5073922;28;20067;-70
2022/07/30 08:50:57;;;;;;;1.80;0.82;;;;;;;45.54;8.17;99662.53;5041618;28;20127;-68
2022/07/30 08:53:33;;;;;;;1.92;0.85;;;;;;;45.55;7.82;99641.69;5092175;28;20044;-71
2022/07/30 08:55:59;;;;;;;3.05;0.80;;;;;;;47.57;7.61;99639.16;5058494;28;20047;-69
2022/07/30 08:58:29;;;;;;;1.58;0.80;;;;;;;47.33;7.36;99656.84;5092087;28;20040;-69
2022/07/30 09:00:55;;;;;;;4.97;0.90;;;;;;;48.27;6.32;99658.69;5091903;28;20083;-70
2022/07/30 09:03:21;;;;;;;3.60;0.70;;;;;;;49.60;5.38;99657.00;5075185;28;20078;-69
2022/07/30 09:05:47;;;;;;;1.38;0.80;;;;;;;51.25;5.34;99657.69;5075107;28;20043;-69
2022/07/30 09:08:13;;;;;;;1.52;0.63;;;;;;;51.88;4.43;99642.41;5058283;28;20044;-68
2022/07/30 09:10:41;;;;;;;3.35;0.70;;;;;;;52.22;4.16;99644.97;5074697;28;20493;-70
2022/07/30 09:13:34;;;;;;;4.70;1.33;;;;;;;49.73;5.54;99660.13;5074813;28;20075;-69
2022/07/30 09:16:01;;;;;;;3.13;0.75;;;;;;;46.14;7.68;99649.72;5058264;28;20305;-69
2022/07/30 09:18:33;;;;;;;4.93;0.90;;;;;;;43.71;9.12;99641.97;5091359;28;20048;-72
2022/07/30 09:21:00;;;;;;;2.58;0.90;;;;;;;41.41;10.45;99619.03;5057709;28;20755;-72
2022/07/30 09:23:27;;;;;;;1.42;0.90;;;;;;;39.86;11.94;99632.59;5058338;28;20047;-69
2022/07/30 09:26:11;;;;;;;2.47;0.90;;;;;;;41.08;11.35;99642.84;5062792;28;20044;-69
2022/07/30 09:28:42;;;;;;;4.40;1.00;;;;;;;43.49;9.95;99640.84;5075141;28;20051;-69
2022/07/30 09:31:15;;;;;;;1.50;1.10;;;;;;;45.16;8.39;99645.38;5059219;28;20102;-68
2022/07/30 09:34:01;;;;;;;2.60;0.90;;;;;;;47.06;7.29;99658.41;5056155;28;20450;-68
2022/07/30 09:36:45;;;;;;;1.98;0.80;;;;;;;49.01;6.15;99649.81;5062470;28;20130;-69
2022/07/30 09:39:39;;;;;;;2.78;0.70;;;;;;;49.85;5.27;99643.44;5064484;28;20504;-70
2022/07/30 09:42:24;;;;;;;1.40;0.70;;;;;;;50.73;4.49;99653.66;5075824;28;20143;-70
2022/07/30 09:45:04;;;;;;;3.28;1.10;;;;;;;50.49;5.04;99635.78;5074337;28;20039;-69
2022/07/30 09:47:34;;;;;;;1.75;1.00;;;;;;;50.64;4.97;99664.66;5074366;28;20036;-69
2022/07/30 09:50:06;;;;;;;6.72;0.90;;;;;;;47.82;6.57;99639.09;5092096;28;20035;-69
2022/07/30 09:52:32;;;;;;;3.00;1.40;;;;;;;47.84;6.46;99629.00;5074103;28;20056;-69
2022/07/30 09:54:58;;;;;;;2.83;0.95;;;;;;;48.28;5.98;99637.78;5091007;28;20040;-69
2022/07/30 09:57:29;;;;;;;6.15;1.70;;;;;;;49.55;5.88;99626.38;5090759;28;20093;-69
2022/07/30 10:00:19;;;;;;;7.15;1.67;;;;;;;49.22;5.31;99620.63;5057874;28;20051;-70
2022/07/30 10:02:51;;;;;;;1.88;0.90;;;;;;;48.98;6.26;99636.56;5090225;28;20554;-69
2022/07/30 10:05:35;;;;;;;2.33;0.90;;;;;;;48.61;5.71;99620.25;5090525;28;20050;-69
2022/07/30 10:08:02;;;;;;;2.30;0.88;;;;;;;48.37;6.52;99620.41;5040624;28;20138;-69
2022/07/30 10:10:30;;;;;;;3.42;0.90;;;;;;;48.56;6.68;99625.53;5073977;28;20051;-69
2022/07/30 10:12:58;;;;;;;2.97;0.65;;;;;;;45.82;7.65;99606.59;5091713;28;20116;-69
2022/07/30 10:15:28;;;;;;;5.60;0.82;;;;;;;43.53;9.37;99619.34;5073487;28;20074;-69
2022/07/30 10:17:54;;;;;;;2.83;0.95;;;;;;;41.47;10.80;99622.34;5090330;28;20043;-69
2022/07/30 10:20:49;;;;;;;3.10;0.95;;;;;;;39.70;12.08;99615.81;5041896;28;20572;-68
2022/07/30 10:23:47;;;;;;;1.20;0.90;;;;;;;38.29;13.08;99618.47;5077245;28;20131;-68
2022/07/30 10:26:35;;;;;;;4.80;0.75;;;;;;;38.72;13.00;99607.75;5061941;28;20564;-69
2022/07/30 10:29:20;;;;;;;3.67;1.10;;;;;;;39.40;12.28;99611.66;5061751;28;20448;-69
2022/07/30 10:31:49;;;;;;;6.38;1.00;;;;;;;39.11;12.51;99617.44;5073469;28;20044;-68
2022/07/30 10:34:17;;;;;;;3.88;1.10;;;;;;;38.29;13.50;99595.47;5091560;28;20036;-69
2022/07/30 10:36:51;;;;;;;5.43;0.98;;;;;;;38.40;13.31;99605.81;5090008;28;20121;-68
2022/07/30 10:39:25;;;;;;;2.28;1.00;;;;;;;40.37;11.82;99614.25;5073152;28;20040;-68
2022/07/30 10:42:15;;;;;;;4.88;0.77;;;;;;;40.44;11.60;99622.81;5091146;28;20428;-69
2022/07/30 10:45:18;;;;;;;3.83;1.00;;;;;;;39.69;11.99;99616.19;5073243;28;20039;-69
2022/07/30 10:47:49;;;;;;;3.08;1.15;;;;;;;38.56;12.70;99581.84;5056681;28;20044;-68
2022/07/30 10:50:17;;;;;;;4.85;1.00;;;;;;;37.88;13.35;99607.41;5072925;28;20063;-68
2022/07/30 10:52:51;;;;;;;4.07;1.60;;;;;;;37.80;13.29;99588.84;5072940;28;20055;-69
2022/07/30 10:55:38;;;;;;;1.95;1.25;;;;;;;39.55;12.99;99618.50;5090994;28;20066;-70
2022/07/30 10:58:07;;;;;;;3.00;1.30;;;;;;;41.22;11.64;99616.19;5089345;28;20512;-73
2022/07/30 11:00:36;;;;;;;3.92;1.08;;;;;;;42.66;10.26;99610.19;5089589;28;20159;-68
2022/07/30 11:03:22;;;;;;;2.97;1.13;;;;;;;44.28;8.86;99636.81;5090783;28;20047;-68
2022/07/30 11:05:50;;;;;;;3.67;1.23;;;;;;;45.22;8.42;99629.78;5072592;28;20140;-68
2022/07/30 11:08:35;;;;;;;4.50;1.05;;;;;;;46.09;7.76;99629.56;5072823;28;20040;-69
2022/07/30 11:11:02;;;;;;;2.13;0.80;;;;;;;46.24;7.71;99622.88;5090985;28;20052;-69
2022/07/30 11:13:56;;;;;;;1.65;0.70;;;;;;;46.61;7.10;99623.38;5089605;28;20075;-70
2022/07/30 11:16:24;;;;;;;4.68;1.17;;;;;;;45.85;7.39;99605.81;5089236;28;20497;-70
2022/07/30 11:19:08;;;;;;;2.08;1.60;;;;;;;44.21;8.24;99610.69;5089329;28;20118;-69
2022/07/30 11:21:34;;;;;;;1.63;1.00;;;;;;;42.49;9.09;99603.09;5072677;28;20054;-69
2022/07/30 11:24:00;;;;;;;3.40;1.08;;;;;;;41.59;10.04;99592.41;5056119;28;20123;-69
2022/07/30 11:26:47;;;;;;;4.50;1.00;;;;;;;40.44;11.02;99593.00;5056125;28;20412;-69
2022/07/30 11:29:37;;;;;;;1.92;0.88;;;;;;;39.60;11.19;99598.78;5039069;28;20093;-69
2022/07/30 11:32:23;;;;;;;0.85;0.73;;;;;;;38.68;11.81;99595.72;5089924;28;20086;-68
2022/07/30 11:34:49;;;;;;;4.28;0.90;;;;;;;38.01;12.69;99588.84;5072477;28;20055;-68
2022/07/30 11:37:16;;;;;;;0.98;0.73;;;;;;;37.92;12.91;99586.13;5055687;28;20032;-69
2022/07/30 11:39:54;;;;;;;3.63;0.90;;;;;;;38.13;13.30;99588.94;5055942;28;20043;-68
2022/07/30 11:42:26;;;;;;;5.10;1.20;;;;;;;37.90;13.28;99588.47;5072268;28;20051;-70
2022/07/30 11:44:52;;;;;;;2.60;0.90;;;;;;;37.11;13.57;99582.91;5072299;28;20048;-68
2022/07/30 11:47:17;;;;;;;2.65;1.38;;;;;;;36.57;14.30;99589.28;5072456;28;20508;-68
2022/07/30 11:49:45;;;;;;;4.00;2.60;;;;;;;36.18;14.79;99595.00;5055731;28;20050;-68
2022/07/30 11:52:11;;;;;;;2.85;1.35;;;;;;;35.60;15.66;99573.34;5072438;28;20466;-69
2022/07/30 11:54:53;;;;;;;6.35;3.20;;;;;;;35.08;15.36;99587.34;5089160;28;20094;-70
2022/07/30 11:57:18;;;;;;;4.80;1.88;;;;;;;34.52;15.56;99582.50;5072645;28;20066;-67